Time;durP1;ratioP1;P1;durP2;ratioP2;P2;SDS_P1;SDS_P2;PMS_P1;PMS_P2;Temp;Humidity;BMP_temperature;BMP_pressure;BME280_temperature;BME280_humidity;BME280_pressure;Samples;Min_cycle;Max_cycle;Signal;HPM_P1;HPM_P2
2022/06/04 00:02:01;;;;;;;17.35;6.68;;;27.50;48.00;;;;;;5094240;28;20058;-75
2022/06/04 00:04:27;;;;;;;20.67;7.00;;;27.40;47.90;;;;;;5094718;28;20069;-75
2022/06/04 00:06:54;;;;;;;15.13;6.72;;;27.40;47.80;;;;;;5094548;28;20028;-77
2022/06/04 00:09:24;;;;;;;16.25;6.63;;;27.40;47.80;;;;;;5094289;28;20024;-73
2022/06/04 00:17:23;;;;;;;12.00;6.90;;;27.40;47.10;;;;;;5074750;28;20385;-76
2022/06/04 00:19:49;;;;;;;17.30;7.10;;;27.40;48.00;;;;;;5101445;28;20044;-70
2022/06/04 00:22:16;;;;;;;16.65;6.47;;;27.40;48.00;;;;;;5107534;28;20039;-73
2022/06/04 00:24:43;;;;;;;16.88;6.72;;;27.30;48.20;;;;;;5109222;28;20381;-80
2022/06/04 00:27:20;;;;;;;19.10;5.85;;;27.30;48.80;;;;;;5101406;28;20016;-75
2022/06/04 00:29:45;;;;;;;13.80;6.68;;;27.30;49.20;;;;;;5077068;28;20032;-76
2022/06/04 00:32:12;;;;;;;21.17;6.57;;;27.30;49.60;;;;;;5094045;28;20026;-72
2022/06/04 00:34:38;;;;;;;13.68;5.45;;;27.20;50.30;;;;;;5094756;28;20372;-76
2022/06/04 00:37:04;;;;;;;12.65;5.90;;;27.20;50.70;;;;;;5094087;28;20024;-77
2022/06/04 00:39:29;;;;;;;14.15;6.60;;;27.20;51.40;;;;;;5094060;28;20035;-78
2022/06/04 00:42:10;;;;;;;15.30;5.47;;;27.20;51.90;;;;;;5094320;28;20028;-76
2022/06/04 00:45:07;;;;;;;44.47;6.75;;;27.10;52.90;;;;;;5076844;28;20585;-78
2022/06/04 00:47:33;;;;;;;11.13;5.10;;;27.10;52.40;;;;;;5076352;28;20184;-74
2022/06/04 00:49:58;;;;;;;14.65;5.30;;;27.10;53.70;;;;;;5097877;28;20062;-78
2022/06/04 00:52:25;;;;;;;18.23;5.03;;;27.00;54.50;;;;;;5111624;28;20031;-80
2022/06/04 00:54:53;;;;;;;15.15;5.53;;;27.00;55.00;;;;;;5106810;28;20099;-79
2022/06/04 00:57:43;;;;;;;11.52;5.07;;;27.00;55.60;;;;;;5095006;28;20016;-79
2022/06/04 01:00:12;;;;;;;12.77;5.32;;;27.00;55.60;;;;;;5093653;28;20048;-78
2022/06/04 01:03:21;;;;;;;13.70;4.82;;;27.00;56.10;;;;;;5093929;28;20028;-77
2022/06/04 01:06:15;;;;;;;11.73;5.03;;;27.00;56.60;;;;;;5078723;28;20028;-78
2022/06/04 01:08:43;;;;;;;;;;;26.90;57.30;;;;;;5094388;28;20476;-67
2022/06/04 01:12:09;;;;;;;12.82;4.53;;;26.90;58.30;;;;;;5093082;28;20368;-72
2022/06/04 01:14:55;;;;;;;10.75;4.55;;;26.90;57.50;;;;;;5092976;28;20143;-74
2022/06/04 01:17:33;;;;;;;14.40;5.03;;;26.90;58.40;;;;;;5093071;28;20012;-69
2022/06/04 01:20:33;;;;;;;12.85;5.53;;;26.90;58.90;;;;;;5092774;28;20083;-70
2022/06/04 01:22:58;;;;;;;14.50;5.60;;;26.90;59.20;;;;;;5092620;28;20025;-69
2022/06/04 01:26:21;;;;;;;14.70;5.63;;;26.90;59.50;;;;;;5092702;28;20050;-69
2022/06/04 01:29:01;;;;;;;13.73;5.00;;;26.80;59.80;;;;;;5010730;28;20136;-70
2022/06/04 01:31:38;;;;;;;12.93;4.55;;;26.80;60.10;;;;;;5010908;28;20034;-69
2022/06/04 01:34:08;;;;;;;12.88;4.93;;;26.80;60.80;;;;;;5063044;28;20064;-74
2022/06/04 01:36:50;;;;;;;14.10;5.15;;;26.80;61.40;;;;;;5074858;28;20074;-70
2022/06/04 01:39:24;;;;;;;11.85;5.45;;;26.70;61.80;;;;;;5093158;28;20097;-78
2022/06/04 01:41:57;;;;;;;11.18;4.93;;;26.70;62.00;;;;;;5096455;28;20081;-78
2022/06/04 01:44:28;;;;;;;15.67;5.30;;;26.60;63.00;;;;;;5079337;28;20481;-78
2022/06/04 01:46:58;;;;;;;12.30;4.55;;;26.60;62.90;;;;;;5097521;28;20024;-81
2022/06/04 01:49:33;;;;;;;12.55;5.38;;;26.50;64.00;;;;;;5097360;28;20020;-79
2022/06/04 01:52:24;;;;;;;11.88;5.18;;;26.50;63.40;;;;;;5097342;28;20100;-78
2022/06/04 01:54:54;;;;;;;11.43;5.30;;;26.50;63.90;;;;;;5086200;28;20070;-78
2022/06/04 01:57:32;;;;;;;12.05;5.43;;;26.40;64.70;;;;;;5097315;28;20052;-74
2022/06/04 02:00:11;;;;;;;11.43;5.03;;;26.40;65.60;;;;;;5096927;28;20058;-76
2022/06/04 02:02:42;;;;;;;10.88;4.95;;;26.30;65.80;;;;;;5096825;28;20024;-78
2022/06/04 02:05:15;;;;;;;13.82;5.30;;;26.30;65.30;;;;;;5097121;28;20091;-81
2022/06/04 02:07:45;;;;;;;16.10;5.32;;;26.30;64.80;;;;;;5097473;28;20039;-76
2022/06/04 02:10:30;;;;;;;10.00;5.40;;;26.30;64.90;;;;;;5097431;28;20076;-78
2022/06/04 02:13:00;;;;;;;15.73;5.53;;;26.40;65.40;;;;;;5079188;28;20130;-80
2022/06/04 02:15:36;;;;;;;13.68;5.40;;;26.30;64.70;;;;;;5097846;28;20095;-80
2022/06/04 02:18:03;;;;;;;11.52;5.00;;;26.30;65.10;;;;;;5097534;28;20449;-79
2022/06/04 02:20:29;;;;;;;15.07;6.20;;;26.30;64.70;;;;;;5096409;28;20096;-79
2022/06/04 02:22:55;;;;;;;11.93;5.43;;;26.30;64.90;;;;;;5096570;28;20107;-79
2022/06/04 02:25:22;;;;;;;10.88;5.65;;;26.30;65.10;;;;;;5096593;28;20035;-78
2022/06/04 02:27:49;;;;;;;12.75;5.63;;;26.40;65.10;;;;;;5096626;28;20031;-79
2022/06/04 02:30:16;;;;;;;13.02;6.28;;;26.40;65.20;;;;;;5096623;28;20035;-81
2022/06/04 02:33:00;;;;;;;11.60;5.88;;;26.40;65.50;;;;;;5096626;28;20121;-76
2022/06/04 02:35:58;;;;;;;11.48;5.22;;;26.50;65.90;;;;;;5096218;28;20064;-72
2022/06/04 02:38:28;;;;;;;11.18;4.65;;;26.50;66.20;;;;;;5096030;28;20028;-76
2022/06/04 02:41:02;;;;;;;13.05;5.13;;;26.50;66.50;;;;;;5095994;28;20039;-71
2022/06/04 02:43:42;;;;;;;12.32;5.15;;;26.40;66.10;;;;;;5095506;28;20520;-68
2022/06/04 02:46:37;;;;;;;20.55;8.50;;;26.40;66.90;;;;;;5095661;28;20114;-69
2022/06/04 02:49:18;;;;;;;22.58;9.75;;;26.40;66.60;;;;;;5095580;28;20111;-68
2022/06/04 02:51:49;;;;;;;15.68;7.90;;;26.40;66.60;;;;;;5095181;28;20035;-69
2022/06/04 02:54:57;;;;;;;14.77;6.05;;;26.40;66.40;;;;;;5096364;28;20434;-68
2022/06/04 02:57:25;;;;;;;16.73;5.90;;;26.50;66.60;;;;;;5056965;28;20059;-69
2022/06/04 02:59:53;;;;;;;14.10;5.07;;;26.50;66.60;;;;;;5096225;28;20039;-69
2022/06/04 03:02:20;;;;;;;14.57;5.80;;;26.50;66.40;;;;;;5095054;28;20103;-69
2022/06/04 03:04:50;;;;;;;13.15;6.25;;;26.50;66.10;;;;;;5095174;28;20023;-69
2022/06/04 03:07:18;;;;;;;11.48;5.18;;;26.50;65.80;;;;;;5095193;28;20387;-69
2022/06/04 03:09:44;;;;;;;13.52;5.80;;;26.50;63.50;;;;;;5095181;28;20082;-69
2022/06/04 03:12:14;;;;;;;16.20;5.30;;;26.50;61.10;;;;;;5095223;28;20028;-70
2022/06/04 03:14:40;;;;;;;11.85;6.05;;;26.50;60.50;;;;;;5095029;28;20020;-68
2022/06/04 03:17:10;;;;;;;13.38;5.50;;;26.40;59.50;;;;;;5095062;28;20082;-69
2022/06/04 03:19:36;;;;;;;8.73;5.40;;;26.40;58.90;;;;;;5094824;28;20028;-70
2022/06/04 03:22:02;;;;;;;16.95;5.55;;;26.30;58.80;;;;;;5095125;28;20043;-69
2022/06/04 03:24:28;;;;;;;13.75;5.22;;;26.30;58.30;;;;;;5094928;28;20032;-68
2022/06/04 03:26:54;;;;;;;17.02;5.75;;;26.40;57.60;;;;;;5095189;28;20161;-69
2022/06/04 03:29:20;;;;;;;13.55;5.70;;;26.40;57.40;;;;;;5095626;28;20501;-69
2022/06/04 03:31:46;;;;;;;13.55;5.28;;;26.40;57.30;;;;;;5094762;28;20020;-70
2022/06/04 03:34:12;;;;;;;14.10;5.35;;;26.40;56.90;;;;;;5094670;28;20056;-73
2022/06/04 03:36:39;;;;;;;16.27;5.97;;;26.40;56.90;;;;;;5094798;28;20027;-77
2022/06/04 03:39:08;;;;;;;12.45;5.30;;;26.40;56.90;;;;;;5094771;28;20032;-70
2022/06/04 03:41:36;;;;;;;10.63;5.22;;;26.40;56.80;;;;;;5076632;28;20443;-69
2022/06/04 03:44:02;;;;;;;12.85;5.28;;;26.40;56.80;;;;;;5094360;28;20131;-79
2022/06/04 03:46:28;;;;;;;13.05;5.53;;;26.30;56.50;;;;;;5077081;28;20139;-75
2022/06/04 03:48:58;;;;;;;16.33;6.13;;;26.30;56.70;;;;;;5094977;28;20032;-72
2022/06/04 03:51:27;;;;;;;14.23;6.00;;;26.30;56.40;;;;;;5094836;28;20088;-73
2022/06/04 03:53:54;;;;;;;14.52;5.85;;;26.20;56.30;;;;;;5094825;28;20078;-80
2022/06/04 03:56:22;;;;;;;18.33;5.50;;;26.10;56.40;;;;;;5094140;28;20054;-79
2022/06/04 03:58:48;;;;;;;14.90;5.72;;;26.10;56.40;;;;;;5094145;28;20032;-78
2022/06/04 04:01:19;;;;;;;14.07;5.43;;;26.10;56.30;;;;;;5095541;28;20051;-81
2022/06/04 04:03:45;;;;;;;16.65;5.47;;;26.10;55.60;;;;;;5093910;28;20118;-74
2022/06/04 04:06:20;;;;;;;15.77;4.72;;;26.10;56.10;;;;;;5094986;28;20034;-71
2022/06/04 04:08:46;;;;;;;13.98;4.85;;;26.00;56.20;;;;;;5094096;28;20036;-71
2022/06/04 04:11:14;;;;;;;12.65;4.90;;;26.00;56.10;;;;;;5099440;28;20445;-78
2022/06/04 04:13:40;;;;;;;12.35;5.43;;;26.00;56.30;;;;;;5098029;28;20044;-78
2022/06/04 04:16:08;;;;;;;14.02;5.00;;;26.00;56.10;;;;;;5094649;28;20028;-77
2022/06/04 04:18:34;;;;;;;10.20;4.50;;;26.10;56.40;;;;;;5094912;28;20431;-72
2022/06/04 04:21:12;;;;;;;12.70;4.90;;;26.00;55.60;;;;;;5095322;28;20554;-75
2022/06/04 04:23:38;;;;;;;15.07;5.18;;;26.00;55.50;;;;;;5094487;28;20042;-72
2022/06/04 04:26:06;;;;;;;10.32;4.35;;;26.00;55.70;;;;;;5094332;28;20504;-79
2022/06/04 04:28:32;;;;;;;14.73;4.90;;;26.10;55.70;;;;;;5076543;28;20058;-78
2022/06/04 04:30:58;;;;;;;13.55;4.97;;;26.20;55.50;;;;;;5093797;28;20146;-80
2022/06/04 04:33:24;;;;;;;13.63;5.13;;;26.30;55.50;;;;;;5094225;28;20073;-76
2022/06/04 04:35:50;;;;;;;15.80;5.88;;;26.40;55.30;;;;;;5093971;28;20027;-72
2022/06/04 04:38:21;;;;;;;14.25;4.90;;;26.40;54.90;;;;;;5093973;28;20032;-72
2022/06/04 04:40:48;;;;;;;10.88;5.78;;;26.50;55.50;;;;;;5093927;28;20492;-78
2022/06/04 04:43:14;;;;;;;15.80;5.47;;;26.50;54.90;;;;;;5075855;28;20446;-72
2022/06/04 04:45:43;;;;;;;16.00;5.47;;;26.60;54.60;;;;;;5094425;28;20087;-73
2022/06/04 04:48:09;;;;;;;11.55;4.82;;;26.70;54.60;;;;;;5093793;28;20446;-77
2022/06/04 04:50:38;;;;;;;16.95;5.18;;;26.60;54.40;;;;;;5093816;28;20028;-77
2022/06/04 04:53:08;;;;;;;16.45;5.68;;;26.60;54.50;;;;;;5093724;28;20027;-78
2022/06/04 04:55:34;;;;;;;14.18;5.40;;;26.70;54.50;;;;;;5093964;28;20020;-77
2022/06/04 04:58:01;;;;;;;18.10;5.38;;;26.70;54.50;;;;;;5093733;28;20016;-82
2022/06/04 05:00:27;;;;;;;16.23;5.75;;;26.60;54.40;;;;;;5094042;28;20039;-77
2022/06/04 05:02:53;;;;;;;18.00;4.90;;;26.70;54.20;;;;;;5094130;28;20042;-75
2022/06/04 05:05:19;;;;;;;12.45;4.80;;;26.70;54.00;;;;;;5094357;28;20099;-76
2022/06/04 05:07:45;;;;;;;19.48;5.68;;;26.80;54.10;;;;;;5093752;28;20032;-76
2022/06/04 05:10:12;;;;;;;18.38;6.25;;;26.90;54.00;;;;;;5075613;28;20389;-78
2022/06/04 05:12:38;;;;;;;15.15;5.60;;;27.00;54.00;;;;;;5094105;28;20529;-73
2022/06/04 05:15:05;;;;;;;13.73;5.55;;;27.00;53.80;;;;;;5093718;28;20036;-78
2022/06/04 05:17:31;;;;;;;16.50;5.50;;;27.00;53.60;;;;;;5093827;28;20097;-75
2022/06/04 05:19:57;;;;;;;15.23;5.78;;;27.00;53.70;;;;;;5075338;28;20052;-77
2022/06/04 05:22:23;;;;;;;12.63;5.57;;;27.10;53.70;;;;;;5093555;28;20035;-70
2022/06/04 05:24:49;;;;;;;18.05;6.22;;;27.20;53.40;;;;;;5094236;28;20396;-75
2022/06/04 05:27:15;;;;;;;15.32;5.60;;;27.30;53.00;;;;;;5096322;28;20024;-71
2022/06/04 05:29:40;;;;;;;18.58;6.13;;;27.30;53.10;;;;;;5077590;28;20105;-73
2022/06/04 05:32:09;;;;;;;17.42;5.57;;;27.40;53.10;;;;;;5096127;28;20116;-75
2022/06/04 05:34:35;;;;;;;13.18;5.57;;;27.30;52.90;;;;;;5098396;28;20028;-76
2022/06/04 05:37:01;;;;;;;17.85;5.65;;;27.30;53.40;;;;;;5100862;28;20359;-72
2022/06/04 05:39:31;;;;;;;20.48;6.20;;;27.30;53.40;;;;;;5096408;28;20031;-76
2022/06/04 05:42:01;;;;;;;19.25;6.63;;;27.50;53.00;;;;;;5093055;28;20461;-75
2022/06/04 05:44:27;;;;;;;12.57;5.65;;;27.80;51.00;;;;;;5093253;28;20048;-71
2022/06/04 05:46:54;;;;;;;11.02;6.00;;;28.20;52.10;;;;;;5092906;28;20099;-73
2022/06/04 05:49:20;;;;;;;17.63;6.47;;;28.50;51.60;;;;;;5092816;28;20035;-75
2022/06/04 05:51:47;;;;;;;18.77;7.00;;;28.80;50.70;;;;;;5092586;28;20048;-76
2022/06/04 05:54:13;;;;;;;15.43;5.65;;;29.30;50.20;;;;;;5092468;28;20062;-74
2022/06/04 05:56:43;;;;;;;18.88;6.35;;;29.80;49.70;;;;;;5092904;28;20036;-76
2022/06/04 05:59:11;;;;;;;15.57;6.13;;;30.30;48.80;;;;;;5075345;28;20032;-76
2022/06/04 06:01:39;;;;;;;12.20;5.40;;;30.50;48.30;;;;;;5092764;28;20056;-77
2022/06/04 06:04:07;;;;;;;15.38;5.78;;;30.60;47.70;;;;;;5074586;28;20248;-78
2022/06/04 06:06:35;;;;;;;23.27;6.32;;;30.50;47.60;;;;;;5092511;28;20115;-77
2022/06/04 06:09:05;;;;;;;13.70;5.97;;;30.50;47.90;;;;;;5092964;28;20016;-76
2022/06/04 06:11:31;;;;;;;18.58;6.03;;;30.70;47.40;;;;;;5092355;28;20024;-75
2022/06/04 06:13:57;;;;;;;15.23;5.72;;;30.80;46.90;;;;;;5092351;28;20031;-78
2022/06/04 06:16:26;;;;;;;23.20;6.18;;;31.00;46.60;;;;;;5092606;28;20062;-79
2022/06/04 06:18:54;;;;;;;15.30;5.65;;;31.20;46.50;;;;;;5092345;28;20465;-76
2022/06/04 06:21:22;;;;;;;11.50;5.15;;;31.50;46.00;;;;;;5092387;28;20064;-78
2022/06/04 06:23:50;;;;;;;22.73;6.00;;;31.50;45.70;;;;;;5092297;28;20040;-76
2022/06/04 06:26:22;;;;;;;21.45;5.60;;;31.70;45.30;;;;;;5094216;28;20024;-77
2022/06/04 06:28:49;;;;;;;17.60;5.93;;;31.90;45.00;;;;;;5078348;28;20061;-78
2022/06/04 06:31:19;;;;;;;16.42;5.25;;;32.10;44.40;;;;;;5096255;28;20035;-79
2022/06/04 06:33:45;;;;;;;30.73;6.78;;;32.20;44.00;;;;;;5078490;28;20055;-77
2022/06/04 06:36:13;;;;;;;17.15;5.43;;;32.30;43.70;;;;;;5096211;28;20024;-77
2022/06/04 06:38:39;;;;;;;18.20;5.55;;;32.30;43.40;;;;;;5095875;28;20020;-76
2022/06/04 06:41:06;;;;;;;13.20;5.25;;;32.30;44.00;;;;;;5095952;28;20055;-78
2022/06/04 06:46:09;;;;;;;17.60;6.13;;;32.50;44.40;;;;;;5095870;28;20036;-76
2022/06/04 06:48:38;;;;;;;10.30;4.97;;;32.60;43.30;;;;;;5095948;28;20020;-76
2022/06/04 06:51:29;;;;;;;21.88;5.70;;;32.60;43.40;;;;;;5095769;28;20042;-75
2022/06/04 06:53:55;;;;;;;14.90;4.78;;;32.80;42.20;;;;;;5095753;28;20025;-68
2022/06/04 06:56:27;;;;;;;16.83;5.38;;;32.70;42.50;;;;;;5077015;28;20024;-68
2022/06/04 06:58:54;;;;;;;12.73;5.57;;;32.70;43.10;;;;;;5095213;28;20012;-72
2022/06/04 07:01:21;;;;;;;14.20;4.97;;;33.00;42.40;;;;;;5094541;28;20040;-71
2022/06/04 07:03:48;;;;;;;14.48;4.75;;;33.10;42.10;;;;;;5095444;28;20028;-71
2022/06/04 07:06:14;;;;;;;16.77;5.50;;;33.20;42.00;;;;;;5095627;28;20031;-70
2022/06/04 07:08:42;;;;;;;14.38;5.68;;;33.40;42.00;;;;;;5077528;28;20056;-69
2022/06/04 07:11:08;;;;;;;17.73;6.22;;;33.50;41.40;;;;;;5088669;28;20036;-69
2022/06/04 07:13:34;;;;;;;13.10;4.95;;;33.60;41.40;;;;;;5087727;28;20024;-70
2022/06/04 07:16:00;;;;;;;19.70;6.25;;;33.70;41.10;;;;;;5080393;28;20440;-70
2022/06/04 07:18:26;;;;;;;15.50;5.15;;;33.80;40.90;;;;;;5074439;28;20093;-68
2022/06/04 07:20:51;;;;;;;15.02;5.43;;;33.90;40.60;;;;;;5087727;28;20400;-68
2022/06/04 07:23:18;;;;;;;14.10;5.40;;;33.90;40.40;;;;;;5094552;28;20134;-71
2022/06/04 07:25:45;;;;;;;10.90;4.90;;;33.80;40.10;;;;;;5094609;28;20038;-75
2022/06/04 07:28:11;;;;;;;15.10;4.85;;;33.90;40.20;;;;;;5094364;28;20537;-68
2022/06/04 07:30:38;;;;;;;12.27;4.40;;;33.80;40.30;;;;;;5094218;28;20441;-70
2022/06/04 07:33:04;;;;;;;18.25;5.40;;;33.60;40.10;;;;;;5094578;28;20036;-69
2022/06/04 07:35:30;;;;;;;12.82;5.25;;;33.60;40.10;;;;;;5094257;28;20020;-70
2022/06/04 07:37:56;;;;;;;16.17;5.13;;;33.70;40.20;;;;;;5094038;28;20055;-70
2022/06/04 07:40:22;;;;;;;19.02;5.20;;;33.70;39.90;;;;;;5093965;28;20465;-68
2022/06/04 07:42:48;;;;;;;14.63;4.20;;;33.70;39.50;;;;;;5094143;28;20077;-69
2022/06/04 07:45:14;;;;;;;11.05;4.55;;;33.80;38.80;;;;;;5094301;28;20031;-71
2022/06/04 07:47:41;;;;;;;12.52;4.07;;;33.90;38.50;;;;;;5094195;28;20031;-70
2022/06/04 07:50:08;;;;;;;10.75;4.22;;;33.90;38.10;;;;;;5094054;28;20024;-69
2022/06/04 07:52:34;;;;;;;11.35;4.57;;;33.80;37.80;;;;;;5093953;28;20020;-71
2022/06/04 07:55:00;;;;;;;12.50;3.53;;;33.70;37.70;;;;;;5094490;28;20030;-68
2022/06/04 07:57:26;;;;;;;13.38;4.45;;;33.50;37.40;;;;;;5094236;28;20020;-68
2022/06/04 07:59:52;;;;;;;9.35;4.43;;;33.60;37.90;;;;;;5094122;28;20085;-68
2022/06/04 08:02:21;;;;;;;11.35;4.22;;;33.70;37.70;;;;;;5094006;28;20024;-69
2022/06/04 08:04:47;;;;;;;15.77;4.57;;;33.70;37.30;;;;;;5093699;28;20028;-67
2022/06/04 08:07:15;;;;;;;14.88;4.90;;;33.70;37.30;;;;;;5093645;28;20488;-69
2022/06/04 08:09:43;;;;;;;9.40;3.95;;;33.70;37.70;;;;;;5093519;28;20500;-68
2022/06/04 08:12:09;;;;;;;7.50;3.42;;;33.60;37.50;;;;;;5093756;28;20498;-65
2022/06/04 08:14:35;;;;;;;12.98;4.25;;;33.50;37.40;;;;;;5093630;28;20099;-67
2022/06/04 08:17:01;;;;;;;11.38;4.38;;;33.30;37.20;;;;;;5093323;28;20051;-64
2022/06/04 08:19:29;;;;;;;34.63;5.85;;;33.20;37.70;;;;;;5093261;28;20035;-65
2022/06/04 08:21:55;;;;;;;22.77;4.05;;;33.10;37.60;;;;;;5093672;28;20024;-67
2022/06/04 08:24:23;;;;;;;74.78;10.13;;;33.00;38.30;;;;;;5093551;28;20116;-69
2022/06/04 08:26:58;;;;;;;23.20;5.93;;;33.00;38.10;;;;;;5093360;28;20100;-70
2022/06/04 08:29:25;;;;;;;10.13;3.83;;;32.90;37.80;;;;;;5092907;28;20137;-68
2022/06/04 08:31:51;;;;;;;11.38;4.03;;;32.80;37.90;;;;;;5092980;28;20020;-67
2022/06/04 08:34:17;;;;;;;12.15;3.97;;;32.80;37.70;;;;;;5092915;28;20107;-68
2022/06/04 08:36:45;;;;;;;16.33;4.10;;;32.80;37.80;;;;;;5093019;28;20051;-69
2022/06/04 08:39:11;;;;;;;16.27;4.30;;;32.90;37.90;;;;;;5092840;28;20020;-67
2022/06/04 08:42:04;;;;;;;17.05;4.07;;;32.90;37.80;;;;;;5074585;28;20080;-67
2022/06/04 08:44:47;;;;;;;11.25;4.03;;;32.90;37.90;;;;;;5091771;28;20123;-68
2022/06/04 08:47:23;;;;;;;12.38;4.05;;;32.80;37.70;;;;;;5081286;28;20028;-68
2022/06/04 08:49:56;;;;;;;10.63;3.92;;;32.80;37.50;;;;;;5092117;28;20032;-69
2022/06/04 08:52:28;;;;;;;11.05;4.28;;;32.80;37.50;;;;;;5074086;28;20420;-67
2022/06/04 08:58:03;;;;;;;12.13;4.38;;;32.90;37.80;;;;;;5093454;28;20487;-68
2022/06/04 09:00:59;;;;;;;16.77;3.85;;;33.00;38.20;;;;;;5092458;28;20157;-67
2022/06/04 09:04:01;;;;;;;17.20;4.32;;;33.00;38.20;;;;;;5089665;28;20043;-68
2022/06/04 09:06:52;;;;;;;14.70;4.28;;;33.00;37.90;;;;;;5090854;28;20111;-71
2022/06/04 09:09:29;;;;;;;13.50;4.28;;;33.00;38.20;;;;;;5089852;28;20027;-69
2022/06/04 09:11:58;;;;;;;12.20;4.32;;;33.00;37.90;;;;;;5092184;28;20028;-68
2022/06/04 09:14:44;;;;;;;16.80;4.75;;;32.90;37.90;;;;;;5092235;28;20081;-70
2022/06/04 09:17:25;;;;;;;13.52;4.45;;;33.00;38.10;;;;;;5091298;28;20551;-69
2022/06/04 09:19:56;;;;;;;14.38;4.57;;;33.00;37.90;;;;;;5092708;28;20093;-71
2022/06/04 09:22:31;;;;;;;14.35;4.72;;;32.90;38.10;;;;;;5093146;28;20403;-71
2022/06/04 09:24:57;;;;;;;16.05;4.45;;;32.80;37.70;;;;;;5092451;28;20094;-73
2022/06/04 09:27:39;;;;;;;15.32;4.63;;;32.80;37.70;;;;;;5092853;28;20032;-69
2022/06/04 09:30:20;;;;;;;15.02;5.07;;;32.80;37.90;;;;;;5092437;28;20095;-69
2022/06/04 09:32:56;;;;;;;11.90;4.45;;;32.80;37.90;;;;;;5092226;28;20032;-68
2022/06/04 09:35:31;;;;;;;21.80;5.00;;;32.90;38.20;;;;;;5092571;28;20031;-69
2022/06/04 09:37:57;;;;;;;13.85;4.85;;;32.90;37.30;;;;;;5092437;28;20393;-69
2022/06/04 09:40:33;;;;;;;21.25;4.90;;;32.90;37.50;;;;;;5092397;28;20032;-72
2022/06/04 09:43:16;;;;;;;11.63;4.63;;;32.90;37.40;;;;;;5092596;28;20059;-68
2022/06/04 09:45:52;;;;;;;14.85;4.60;;;32.80;37.60;;;;;;5093136;28;20028;-72
2022/06/04 09:48:25;;;;;;;11.68;4.55;;;32.80;37.50;;;;;;5074937;28;20071;-71
2022/06/04 09:51:16;;;;;;;14.80;4.60;;;32.90;37.80;;;;;;5092549;28;20024;-69
2022/06/04 09:53:44;;;;;;;12.40;4.32;;;32.90;37.70;;;;;;5078558;28;20036;-74
2022/06/04 09:56:40;;;;;;;20.73;4.57;;;33.00;37.50;;;;;;5092682;28;20024;-71
2022/06/04 09:59:24;;;;;;;14.38;3.90;;;33.00;37.10;;;;;;5089037;28;20484;-75
2022/06/04 10:02:02;;;;;;;9.68;3.85;;;33.10;36.60;;;;;;5094619;28;20385;-69
2022/06/04 10:04:40;;;;;;;20.17;4.13;;;33.20;35.90;;;;;;5096004;28;20062;-74
2022/06/04 10:07:09;;;;;;;16.08;3.35;;;33.20;35.30;;;;;;5096369;28;20499;-72
2022/06/04 10:09:56;;;;;;;14.88;3.38;;;33.20;35.10;;;;;;5078085;28;20024;-71
2022/06/04 10:15:46;;;;;;;9.63;3.50;;;33.40;34.70;;;;;;5096397;28;20031;-73
2022/06/04 10:18:35;;;;;;;18.63;3.30;;;33.50;33.50;;;;;;5095829;28;20031;-73
2022/06/04 10:21:21;;;;;;;10.05;3.80;;;33.50;34.60;;;;;;5095462;28;20127;-74
2022/06/04 10:23:50;;;;;;;18.17;3.97;;;33.50;33.60;;;;;;5095732;28;20036;-72
2022/06/04 10:26:18;;;;;;;16.48;3.88;;;33.50;35.30;;;;;;5078437;28;20020;-76
2022/06/04 10:28:58;;;;;;;14.60;3.92;;;33.50;33.90;;;;;;5089945;28;20032;-72
2022/06/04 10:31:49;;;;;;;11.57;3.40;;;33.60;33.40;;;;;;5076001;28;20353;-74
2022/06/04 10:34:15;;;;;;;14.43;3.50;;;33.70;33.50;;;;;;5093843;28;20042;-70
2022/06/04 10:36:46;;;;;;;16.10;4.35;;;33.70;34.80;;;;;;5096411;28;20417;-77
2022/06/04 10:39:20;;;;;;;19.88;3.72;;;33.80;33.50;;;;;;5097004;28;20044;-78
2022/06/04 10:42:05;;;;;;;15.73;3.72;;;33.80;33.20;;;;;;5099158;28;20032;-69
2022/06/04 10:44:34;;;;;;;9.73;3.60;;;33.80;33.10;;;;;;5096301;28;20101;-78
2022/06/04 10:47:25;;;;;;;15.40;3.90;;;33.70;32.70;;;;;;5096185;28;20495;-80
2022/06/04 10:50:09;;;;;;;14.13;4.47;;;33.70;33.00;;;;;;5096257;28;20024;-81
2022/06/04 10:52:44;;;;;;;16.98;3.97;;;33.80;32.70;;;;;;5096330;28;20059;-79
2022/06/04 10:55:19;;;;;;;15.70;3.83;;;33.90;33.80;;;;;;5096140;28;20020;-77
2022/06/04 10:58:10;;;;;;;16.05;3.67;;;33.90;32.20;;;;;;5095618;28;20446;-78
2022/06/04 11:00:47;;;;;;;17.38;4.35;;;34.00;32.00;;;;;;5095709;28;20430;-80
2022/06/04 11:03:36;;;;;;;19.27;4.07;;;34.10;31.70;;;;;;5096136;28;20032;-73
2022/06/04 11:06:20;;;;;;;17.95;3.67;;;34.10;33.60;;;;;;5095318;28;20031;-75
2022/06/04 11:08:52;;;;;;;16.02;3.75;;;34.10;31.20;;;;;;5095568;28;20484;-80
2022/06/04 11:11:53;;;;;;;13.40;3.90;;;34.10;32.90;;;;;;5095499;28;20025;-80
2022/06/04 11:14:45;;;;;;;19.98;4.22;;;34.00;30.80;;;;;;5083030;28;20039;-83
2022/06/04 11:17:23;;;;;;;16.70;4.38;;;33.90;30.90;;;;;;5096080;28;20044;-86
2022/06/04 11:20:04;;;;;;;16.02;4.10;;;33.90;30.80;;;;;;5095805;28;20173;-81
2022/06/04 11:22:37;;;;;;;19.20;4.25;;;33.80;33.20;;;;;;5095590;28;20023;-78
2022/06/04 11:25:29;;;;;;;23.67;4.03;;;33.90;33.40;;;;;;5094590;28;20031;-77
2022/06/04 11:27:59;;;;;;;26.80;4.28;;;33.90;31.40;;;;;;5083707;28;20054;-80
2022/06/04 11:30:49;;;;;;;21.98;4.55;;;33.80;32.70;;;;;;5082526;28;20115;-84
2022/06/04 11:33:36;;;;;;;25.08;4.18;;;33.80;32.00;;;;;;5095727;28;20477;-77
2022/06/04 11:36:22;;;;;;;19.85;4.30;;;33.70;32.70;;;;;;5094977;28;20032;-70
2022/06/04 11:38:50;;;;;;;19.08;4.78;;;33.60;33.80;;;;;;5026256;28;20024;-72
2022/06/04 11:41:23;;;;;;;13.43;4.53;;;33.50;34.10;;;;;;5094497;28;20032;-73
2022/06/04 11:44:04;;;;;;;19.08;4.13;;;33.50;35.70;;;;;;5094643;28;20035;-71
2022/06/04 11:46:54;;;;;;;23.42;3.72;;;33.50;34.80;;;;;;5094627;28;20025;-74
2022/06/04 11:49:40;;;;;;;15.75;3.83;;;33.50;34.70;;;;;;5093357;28;20032;-77
2022/06/04 11:52:28;;;;;;;24.00;4.80;;;33.50;35.30;;;;;;5094507;28;20392;-72
2022/06/04 11:55:15;;;;;;;22.98;4.55;;;33.50;34.80;;;;;;5076836;28;20544;-74
2022/06/04 11:57:49;;;;;;;23.05;4.53;;;33.40;34.70;;;;;;5094187;28;20057;-79
2022/06/04 12:00:32;;;;;;;26.17;4.50;;;33.40;34.10;;;;;;5094246;28;20517;-75
2022/06/04 12:03:25;;;;;;;32.20;4.82;;;33.40;34.40;;;;;;5094498;28;20032;-78
2022/06/04 12:06:31;;;;;;;15.57;4.50;;;33.50;33.70;;;;;;5093596;28;20134;-79
2022/06/04 12:09:16;;;;;;;29.70;5.47;;;33.50;33.80;;;;;;5083074;28;20036;-75
2022/06/04 12:12:02;;;;;;;18.58;4.72;;;33.60;34.00;;;;;;5093937;28;20034;-80
2022/06/04 12:14:32;;;;;;;23.23;4.85;;;33.70;33.60;;;;;;5093948;28;20035;-82
2022/06/04 12:17:15;;;;;;;17.23;4.05;;;33.70;33.70;;;;;;5094085;28;20040;-79
2022/06/04 12:25:44;;;;;;;14.77;4.15;;;33.70;32.20;;;;;;5092202;28;20132;-72
2022/06/04 12:28:29;;;;;;;21.38;4.43;;;33.70;33.20;;;;;;5054166;28;20032;-73
2022/06/04 12:30:58;;;;;;;24.95;5.07;;;33.70;33.60;;;;;;5093570;28;20478;-74
2022/06/04 12:33:29;;;;;;;26.83;5.82;;;33.60;33.10;;;;;;5093189;28;20418;-71
2022/06/04 12:36:21;;;;;;;27.60;4.57;;;33.60;33.00;;;;;;5071809;28;20028;-76
2022/06/04 12:38:57;;;;;;;21.67;4.50;;;33.50;33.10;;;;;;5049710;28;20109;-68
2022/06/04 12:41:24;;;;;;;25.95;5.55;;;33.50;32.80;;;;;;5074262;28;20028;-75
2022/06/04 12:44:06;;;;;;;28.35;4.47;;;33.50;33.00;;;;;;5055726;28;20123;-85
2022/06/04 12:46:34;;;;;;;21.77;4.47;;;33.40;32.70;;;;;;5083212;28;20396;-73
2022/06/04 12:49:26;;;;;;;23.17;5.03;;;33.30;33.30;;;;;;5093920;28;20020;-74
2022/06/04 12:52:22;;;;;;;23.38;4.78;;;33.30;33.90;;;;;;5091892;28;20051;-73
2022/06/04 12:54:47;;;;;;;28.92;4.82;;;33.20;33.20;;;;;;5048649;28;20028;-71
2022/06/04 12:57:42;;;;;;;20.98;4.72;;;33.20;33.10;;;;;;5094242;28;20165;-72
2022/06/04 13:00:13;;;;;;;17.35;4.65;;;33.20;33.60;;;;;;5094194;28;20081;-69
2022/06/04 13:02:43;;;;;;;27.88;5.68;;;33.20;33.50;;;;;;5087180;28;20476;-72
2022/06/04 13:05:08;;;;;;;25.40;5.70;;;33.20;33.10;;;;;;5078748;28;20085;-72
2022/06/04 13:07:59;;;;;;;28.40;6.07;;;33.30;33.10;;;;;;5072957;28;20024;-73
2022/06/04 13:10:45;;;;;;;27.95;6.72;;;33.30;33.50;;;;;;5068153;28;20075;-70
2022/06/04 13:13:29;;;;;;;27.38;6.53;;;33.30;34.30;;;;;;5075107;28;20134;-70
2022/06/04 13:16:03;;;;;;;31.85;8.00;;;33.40;34.80;;;;;;5090697;28;20032;-71
2022/06/04 13:18:34;;;;;;;22.70;7.05;;;33.30;34.50;;;;;;5069195;28;20024;-71
2022/06/04 13:21:04;;;;;;;20.98;7.30;;;33.40;34.70;;;;;;5083358;28;20048;-71
2022/06/04 13:23:38;;;;;;;23.25;7.30;;;33.40;35.00;;;;;;5092652;28;20031;-74
2022/06/04 13:26:31;;;;;;;23.80;7.13;;;33.50;34.90;;;;;;5092629;28;20027;-69
2022/06/04 13:28:58;;;;;;;22.15;5.53;;;33.50;35.30;;;;;;5093404;28;20036;-70
2022/06/04 13:31:30;;;;;;;23.48;5.53;;;33.40;35.50;;;;;;5093772;28;20046;-69